Time;durP1;ratioP1;P1;durP2;ratioP2;P2;SDS_P1;SDS_P2;PMS_P1;PMS_P2;Temp;Humidity;BMP_temperature;BMP_pressure;BME280_temperature;BME280_humidity;BME280_pressure;Samples;Min_cycle;Max_cycle;Signal;HPM_P1;HPM_P2
2022/07/21 00:00:38;;;;;;;;;3.00;3.00;;;;;25.48;72.96;101727.00;5017232;28;45411;-68
2022/07/21 00:03:03;;;;;;;;;4.33;4.33;;;;;25.54;72.20;101721.38;5018313;28;45450;-67
2022/07/21 00:05:29;;;;;;;;;4.33;4.00;;;;;25.64;70.76;101720.94;5022784;28;45502;-68
2022/07/21 00:07:54;;;;;;;;;5.00;5.00;;;;;25.64;72.01;101709.81;5012684;28;46284;-67
2022/07/21 00:10:22;;;;;;;;;3.00;3.00;;;;;25.50;72.04;101714.53;5013167;28;45247;-68
2022/07/21 00:12:49;;;;;;;;;5.00;3.67;;;;;25.38;72.77;101721.91;5020142;28;45357;-68
2022/07/21 00:15:17;;;;;;;;;6.00;4.67;;;;;25.22;72.72;101716.84;5021984;28;45364;-68
2022/07/21 00:17:42;;;;;;;;;4.00;2.67;;;;;25.14;73.20;101715.16;5021491;28;46384;-68
2022/07/21 00:20:09;;;;;;;;;3.67;3.67;;;;;25.14;73.40;101711.53;5022771;28;45392;-69
2022/07/21 00:22:35;;;;;;;;;7.00;3.67;;;;;25.14;73.05;101711.53;5019606;28;45605;-68
2022/07/21 00:25:00;;;;;;;;;4.33;4.33;;;;;25.08;73.39;101715.19;5023065;28;45329;-68
2022/07/21 00:27:25;;;;;;;;;4.00;3.00;;;;;25.07;73.70;101707.91;5011764;28;46184;-68
2022/07/21 00:29:51;;;;;;;;;3.33;3.33;;;;;25.11;73.46;101712.00;5023974;28;45327;-68
2022/07/21 00:32:17;;;;;;;;;3.33;3.33;;;;;25.07;73.31;101707.91;5018446;28;45326;-69
2022/07/21 00:34:43;;;;;;;;;3.67;3.67;;;;;25.11;75.54;101720.34;5023607;28;45438;-69
2022/07/21 00:37:09;;;;;;;;;4.00;4.00;;;;;25.05;74.54;101712.88;5018035;28;47264;-69
2022/07/21 00:39:35;;;;;;;;;5.00;5.00;;;;;25.06;74.30;101717.34;5022043;28;45337;-68
2022/07/21 00:42:00;;;;;;;;;5.00;5.00;;;;;24.94;74.79;101708.84;5020527;28;45481;-68
2022/07/21 00:44:27;;;;;;;;;4.67;4.67;;;;;25.02;76.10;101716.09;5020370;28;45378;-68
2022/07/21 00:46:53;;;;;;;;;3.33;3.33;;;;;24.94;76.05;101713.53;5021040;28;45377;-68
2022/07/21 00:49:19;;;;;;;;;5.67;4.33;;;;;24.91;76.42;101717.63;5017565;28;45350;-68
2022/07/21 00:51:45;;;;;;;;;3.67;3.67;;;;;24.84;77.55;101709.25;5019429;28;45450;-68
2022/07/21 00:54:12;;;;;;;;;4.00;4.00;;;;;24.83;77.38;101707.59;5014341;28;45351;-68
2022/07/21 00:56:37;;;;;;;;;5.00;4.67;;;;;24.89;77.86;101714.19;5003584;28;48647;-68
2022/07/21 00:59:03;;;;;;;;;4.00;4.00;;;;;24.82;76.40;101705.88;5030357;28;45435;-68
2022/07/21 01:01:28;;;;;;;;;3.00;3.00;;;;;24.78;78.14;101701.81;5021322;28;45352;-68
2022/07/21 01:03:54;;;;;;;;;3.33;3.33;;;;;24.70;79.27;101701.19;5017927;28;45254;-68
2022/07/21 01:06:19;;;;;;;;;5.00;5.00;;;;;24.71;79.34;101709.31;5014848;28;46219;-68
2022/07/21 01:08:45;;;;;;;;;5.67;5.67;;;;;24.72;78.52;101713.81;5017359;28;45501;-68
2022/07/21 01:11:10;;;;;;;;;4.00;4.00;;;;;24.67;78.48;101705.28;5022254;28;45415;-69
2022/07/21 01:13:41;;;;;;;;;5.00;5.00;;;;;24.65;77.63;101706.56;5019999;28;45481;-70
2022/07/21 01:16:07;;;;;;;;;4.67;4.67;;;;;24.63;78.29;101698.44;5020591;28;45496;-68
2022/07/21 01:18:33;;;;;;;;;4.67;4.00;;;;;24.70;79.27;101713.16;5013377;28;45338;-68
2022/07/21 01:21:03;;;;;;;;;4.33;4.33;;;;;24.61;78.82;101696.97;5023126;28;45257;-69
2022/07/21 01:23:29;;;;;;;;;5.33;5.33;;;;;24.67;79.94;101712.75;5013484;28;45577;-69
2022/07/21 01:25:55;;;;;;;;;0.00;0.00;;;;;24.59;80.83;101705.50;5020845;28;46418;-68
2022/07/21 01:28:20;;;;;;;;;7.67;7.67;;;;;24.56;80.41;101708.72;5029178;28;45240;-68
2022/07/21 01:30:45;;;;;;;;;7.33;6.00;;;;;24.51;81.32;101708.50;5019997;28;45504;-70
2022/07/21 01:33:11;;;;;;;;;3.67;3.67;;;;;24.43;81.32;101701.25;5018646;28;45210;-68
2022/07/21 01:35:36;;;;;;;;;3.33;3.33;;;;;24.39;81.86;101702.78;5019456;28;46896;-68
2022/07/21 01:38:03;;;;;;;;;3.33;3.33;;;;;24.36;81.76;101689.31;5017963;28;45318;-69
2022/07/21 01:43:12;;;;;;;;;3.00;3.00;;;;;24.37;80.82;101685.47;5015166;28;45576;-69
2022/07/21 01:45:40;;;;;;;;;5.67;5.00;;;;;24.37;81.23;101688.25;5020803;28;45315;-68
2022/07/21 01:48:05;;;;;;;;;3.67;3.67;;;;;24.37;80.82;101690.16;5013118;28;45374;-68
2022/07/21 01:50:31;;;;;;;;;5.33;5.33;;;;;24.32;80.95;101690.81;5033044;28;45501;-69
2022/07/21 01:52:58;;;;;;;;;4.33;4.33;;;;;24.25;82.10;101697.47;5013205;28;45403;-68
2022/07/21 01:55:25;;;;;;;;;5.00;5.00;;;;;24.26;82.17;101705.53;5013453;28;46953;-68
2022/07/21 01:57:51;;;;;;;;;4.67;4.67;;;;;24.26;82.39;101704.69;5020478;28;45370;-69
2022/07/21 02:00:17;;;;;;;;;5.00;5.00;;;;;24.27;82.44;101704.47;5020485;28;45405;-68
2022/07/21 02:02:43;;;;;;;;;6.67;5.00;;;;;24.33;81.43;101705.53;5016584;28;45403;-68
2022/07/21 02:05:08;;;;;;;;;5.33;5.00;;;;;24.31;82.19;101707.69;5018187;28;46435;-69
2022/07/21 02:07:33;;;;;;;;;5.33;4.00;;;;;24.29;81.46;101712.59;5015822;28;45451;-68
2022/07/21 02:09:59;;;;;;;;;4.33;4.33;;;;;24.32;80.74;101704.72;5014521;28;45301;-69
2022/07/21 02:12:24;;;;;;;;;6.00;6.00;;;;;24.32;81.19;101703.84;5015717;28;45604;-68
2022/07/21 02:14:50;;;;;;;;;6.00;6.00;;;;;24.47;80.52;101704.47;5019565;28;45425;-68
2022/07/21 02:17:15;;;;;;;;;4.33;4.33;;;;;24.47;80.81;101718.38;5020255;28;45245;-68
2022/07/21 02:19:40;;;;;;;;;6.67;5.00;;;;;24.39;81.34;101716.66;5017525;28;45284;-68
2022/07/21 02:22:06;;;;;;;;;5.00;5.00;;;;;24.34;82.22;101712.81;5019453;28;45405;-68
2022/07/21 02:24:31;;;;;;;;;8.67;6.33;;;;;24.27;81.99;101723.06;5015806;28;46001;-69
2022/07/21 02:26:57;;;;;;;;;8.00;5.33;;;;;24.33;82.19;101719.44;5020859;28;45395;-68
2022/07/21 02:29:23;;;;;;;;;5.67;5.67;;;;;24.25;83.31;101719.69;5015138;28;45350;-69
2022/07/21 02:31:48;;;;;;;;;7.00;7.00;;;;;24.21;82.76;101715.59;5018581;28;45583;-68
2022/07/21 02:34:14;;;;;;;;;6.33;6.33;;;;;24.05;83.39;101714.06;5013801;28;45399;-68
2022/07/21 02:36:39;;;;;;;;;7.00;7.00;;;;;24.04;83.48;101704.03;5015986;28;45446;-69
2022/07/21 02:39:05;;;;;;;;;8.33;5.00;;;;;24.09;83.37;101714.50;5015015;28;45278;-68
2022/07/21 02:41:30;;;;;;;;;7.00;7.00;;;;;24.17;83.33;101719.84;5027546;28;45372;-68
2022/07/21 02:43:56;;;;;;;;;6.67;5.00;;;;;24.03;84.07;101716.22;5017442;28;46720;-68
2022/07/21 02:46:21;;;;;;;;;7.00;7.00;;;;;24.00;84.46;101716.66;5025213;28;45256;-68
2022/07/21 02:48:47;;;;;;;;;8.33;8.33;;;;;23.95;84.55;101713.66;5016390;28;45418;-68
2022/07/21 02:51:12;;;;;;;;;7.00;7.00;;;;;24.02;84.17;101717.28;5018727;28;45351;-68
2022/07/21 02:53:37;;;;;;;;;7.00;7.00;;;;;24.09;83.43;101725.63;5014598;28;45842;-68
2022/07/21 02:56:03;;;;;;;;;7.67;7.67;;;;;24.05;84.05;101728.81;5016582;28;45358;-68
2022/07/21 02:58:29;;;;;;;;;8.00;7.00;;;;;23.91;84.75;101726.25;5019008;28;45316;-68
2022/07/21 03:00:58;;;;;;;;;6.67;6.67;;;;;23.89;84.91;101720.06;5040478;28;45304;-68
2022/07/21 03:03:28;;;;;;;;;8.67;8.67;;;;;23.98;83.78;101727.97;5021159;28;46094;-68
2022/07/21 03:05:55;;;;;;;;;9.33;7.00;;;;;24.02;83.12;101725.63;5023713;28;45306;-68
2022/07/21 03:08:22;;;;;;;;;10.33;9.67;;;;;24.03;83.00;101728.19;5021451;28;46419;-68
2022/07/21 03:10:47;;;;;;;;;8.00;8.00;;;;;23.98;83.55;101725.19;5024107;28;45605;-68
2022/07/21 03:13:13;;;;;;;;;10.00;7.33;;;;;23.92;84.20;101739.91;5022935;28;45376;-68
2022/07/21 03:15:38;;;;;;;;;9.33;8.00;;;;;23.90;83.94;101738.41;5030085;28;45374;-68
2022/07/21 03:18:04;;;;;;;;;7.67;7.67;;;;;23.85;84.57;101740.97;5021819;28;45377;-68
2022/07/21 03:20:32;;;;;;;;;9.00;9.00;;;;;23.76;84.45;101743.09;5024516;28;45331;-67
2022/07/21 03:22:58;;;;;;;;;8.67;8.67;;;;;23.78;85.34;101746.50;5018258;28;46667;-68
2022/07/21 03:25:24;;;;;;;;;11.67;10.00;;;;;23.59;86.15;101733.47;5020112;28;45419;-69
2022/07/21 03:27:49;;;;;;;;;7.67;7.67;;;;;23.64;85.94;101744.78;5010132;28;45441;-68
2022/07/21 03:30:15;;;;;;;;;11.00;11.00;;;;;23.58;85.05;101745.63;5025543;28;45330;-69
2022/07/21 03:32:40;;;;;;;;;8.67;7.33;;;;;23.36;86.28;101753.22;5018465;28;46532;-67
2022/07/21 03:35:08;;;;;;;;;11.00;10.67;;;;;23.29;86.10;101753.19;5024966;28;45513;-69
2022/07/21 03:37:50;;;;;;;;;15.67;11.33;;;;;23.32;87.56;101757.44;5017171;28;45423;-69
2022/07/21 03:40:22;;;;;;;;;14.67;11.00;;;;;23.28;86.50;101762.56;5012187;28;45389;-70
2022/07/21 03:42:48;;;;;;;;;15.00;13.33;;;;;23.17;87.86;101762.28;5017410;28;45429;-69
2022/07/21 03:45:13;;;;;;;;;14.33;11.00;;;;;23.10;88.19;101759.50;5022224;28;45591;-68
2022/07/21 03:47:39;;;;;;;;;15.00;14.00;;;;;23.25;87.12;101768.50;5017849;28;45200;-68
2022/07/21 03:50:05;;;;;;;;;13.67;12.67;;;;;23.22;87.34;101768.94;5016570;28;45426;-68
2022/07/21 03:52:31;;;;;;;;;13.00;11.67;;;;;23.26;86.98;101770.22;5017798;28;47269;-69
2022/07/21 03:55:08;;;;;;;;;12.33;11.67;;;;;23.15;86.75;101762.53;5016286;28;45307;-69
2022/07/21 03:57:43;;;;;;;;;11.67;11.33;;;;;23.13;86.81;101761.00;5018716;28;45515;-67
2022/07/21 04:00:14;;;;;;;;;16.67;14.00;;;;;23.21;87.58;101769.16;5015642;28;45309;-67
2022/07/21 04:02:42;;;;;;;;;14.00;13.00;;;;;23.30;86.56;101771.50;5019570;28;46170;-68
2022/07/21 04:05:10;;;;;;;;;17.00;15.00;;;;;23.27;86.72;101765.53;5013078;28;45361;-68
2022/07/21 04:07:35;;;;;;;;;12.67;11.33;;;;;23.26;87.45;101767.47;5020711;28;45391;-69
2022/07/21 04:10:00;;;;;;;;;16.00;13.67;;;;;23.29;87.09;101763.44;5013321;28;45269;-70
2022/07/21 04:12:27;;;;;;;;;15.33;13.67;;;;;23.21;88.06;101772.78;5010139;28;48181;-69
2022/07/21 04:14:53;;;;;;;;;13.00;11.67;;;;;23.18;87.40;101784.28;5015194;28;45299;-69
2022/07/21 04:17:19;;;;;;;;;18.00;16.00;;;;;23.06;88.64;101779.53;5020800;28;45612;-69
2022/07/21 04:19:44;;;;;;;;;16.67;16.67;;;;;23.10;88.67;101776.13;5023754;28;45421;-68
2022/07/21 04:22:09;;;;;;;;;18.00;18.00;;;;;23.15;88.28;101772.75;5028535;28;46427;-69
2022/07/21 04:24:35;;;;;;;;;16.67;16.67;;;;;23.13;88.88;101778.50;5037169;28;45224;-69
2022/07/21 04:27:00;;;;;;;;;15.33;14.33;;;;;23.22;87.74;101777.28;5037432;28;45274;-70
2022/07/21 04:29:25;;;;;;;;;13.75;12.75;;;;;23.26;87.92;101775.78;5019863;28;45415;-68
2022/07/21 04:31:51;;;;;;;;;14.25;14.25;;;;;23.37;86.16;101776.25;5026853;28;46569;-69
2022/07/21 04:34:16;;;;;;;;;23.75;20.00;;;;;23.20;87.58;101784.94;5017487;28;45339;-68
2022/07/21 04:36:41;;;;;;;;;14.67;14.67;;;;;23.20;88.18;101782.16;5022021;28;45296;-69
2022/07/21 04:39:07;;;;;;;;;16.25;16.25;;;;;23.22;88.34;101780.03;5022958;28;45571;-69
2022/07/21 04:41:32;;;;;;;;;21.67;19.33;;;;;23.48;87.45;101778.44;5022655;28;46662;-69
2022/07/21 04:44:00;;;;;;;;;22.25;21.00;;;;;23.44;86.59;101782.69;5017866;28;45389;-69
2022/07/21 04:46:25;;;;;;;;;17.00;16.75;;;;;23.47;86.25;101783.09;5019559;28;45410;-68
2022/07/21 04:48:51;;;;;;;;;18.75;17.00;;;;;23.45;86.61;101781.63;5013411;28;45426;-69
2022/07/21 04:51:16;;;;;;;;;24.50;23.75;;;;;23.35;86.47;101789.47;5023672;28;46361;-69
2022/07/21 04:53:41;;;;;;;;;21.75;20.25;;;;;23.28;87.30;101783.91;5023756;28;45364;-70
2022/07/21 04:56:07;;;;;;;;;27.25;23.50;;;;;23.16;86.89;101786.38;5023786;28;45433;-69
2022/07/21 04:58:32;;;;;;;;;21.50;20.00;;;;;23.19;87.59;101796.22;5020620;28;45249;-69
2022/07/21 05:00:57;;;;;;;;;25.25;24.25;;;;;23.33;87.44;101794.34;5017591;28;46912;-69
2022/07/21 05:03:23;;;;;;;;;21.25;18.75;;;;;23.26;87.18;101786.00;5014359;28;45448;-69
2022/07/21 05:05:48;;;;;;;;;23.75;20.25;;;;;23.54;85.67;101792.34;5020360;28;45555;-69
2022/07/21 05:08:13;;;;;;;;;24.00;22.75;;;;;23.58;84.70;101790.88;5018354;28;45508;-69
2022/07/21 05:10:39;;;;;;;;;24.33;22.33;;;;;23.54;85.84;101791.47;5020044;28;46408;-69
2022/07/21 05:13:04;;;;;;;;;21.75;21.75;;;;;23.74;84.34;101797.97;5012541;28;45331;-69
2022/07/21 05:15:29;;;;;;;;;22.33;21.33;;;;;23.70;84.70;101795.81;5008979;28;45280;-68
2022/07/21 05:17:55;;;;;;;;;19.50;18.50;;;;;23.78;83.93;101785.38;5015483;28;45468;-68
2022/07/21 05:20:20;;;;;;;;;25.50;21.00;;;;;23.76;82.73;101784.72;5017232;28;45560;-69
2022/07/21 05:22:46;;;;;;;;;27.75;23.00;;;;;23.47;85.66;101805.28;5014776;28;45479;-68
2022/07/21 05:25:11;;;;;;;;;23.50;21.25;;;;;23.61;85.05;101806.22;5021594;28;45373;-69
2022/07/21 05:27:37;;;;;;;;;24.50;21.50;;;;;23.62;83.72;101803.25;5018524;28;45531;-69
2022/07/21 05:30:04;;;;;;;;;21.25;20.75;;;;;23.54;85.07;101811.75;5034074;28;47466;-69
2022/07/21 05:32:29;;;;;;;;;26.50;24.75;;;;;23.63;85.29;101804.97;5018890;28;45406;-68
2022/07/21 05:34:55;;;;;;;;;22.50;22.50;;;;;23.70;85.46;101812.44;5015141;28;45468;-69
2022/07/21 05:37:20;;;;;;;;;28.50;25.00;;;;;23.86;83.78;101807.38;5019041;28;45689;-69
2022/07/21 05:39:46;;;;;;;;;24.25;22.50;;;;;23.96;83.44;101807.81;5013713;28;46283;-69
2022/07/21 05:42:11;;;;;;;;;21.75;21.75;;;;;23.90;83.84;101810.56;5017475;28;45260;-69
2022/07/21 05:44:36;;;;;;;;;22.75;22.75;;;;;23.86;83.79;101809.31;5016405;28;45448;-68
2022/07/21 05:47:02;;;;;;;;;25.00;23.25;;;;;23.93;83.71;101811.03;5017200;28;45568;-68
2022/07/21 05:49:27;;;;;;;;;25.00;19.67;;;;;24.02;83.06;101814.47;5011696;28;45531;-69
2022/07/21 05:51:53;;;;;;;;;21.50;20.75;;;;;24.00;83.13;101823.00;5013865;28;45409;-68
2022/07/21 05:54:18;;;;;;;;;26.75;26.00;;;;;23.79;83.88;101828.72;5021150;28;45521;-68
2022/07/21 05:56:43;;;;;;;;;20.75;20.00;;;;;23.75;84.28;101830.19;5019248;28;45242;-68
2022/07/21 05:59:09;;;;;;;;;27.00;25.25;;;;;23.56;86.18;101828.19;5019831;28;46310;-69
2022/07/21 06:01:34;;;;;;;;;26.25;25.25;;;;;23.71;84.68;101830.81;5020901;28;48189;-68
2022/07/21 06:03:59;;;;;;;;;23.50;22.00;;;;;23.62;85.38;101831.00;5018250;28;46367;-69
2022/07/21 06:06:25;;;;;;;;;24.00;21.75;;;;;23.82;84.61;101819.94;5021178;28;45538;-68
2022/07/21 06:08:51;;;;;;;;;25.00;24.75;;;;;23.90;83.83;101836.41;5016097;28;45390;-69
2022/07/21 06:11:19;;;;;;;;;26.50;23.75;;;;;24.08;82.55;101837.75;5000734;28;45490;-69
2022/07/21 06:13:45;;;;;;;;;26.25;25.50;;;;;23.96;82.99;101834.75;5018197;28;45452;-69
2022/07/21 06:16:11;;;;;;;;;25.25;23.25;;;;;23.99;82.86;101835.16;5020997;28;45402;-69
2022/07/21 06:18:37;;;;;;;;;26.00;23.75;;;;;23.69;85.42;101831.00;5011200;28;47006;-69
2022/07/21 06:21:03;;;;;;;;;22.00;20.00;;;;;23.86;84.06;101843.47;5028650;28;45329;-69
2022/07/21 06:23:29;;;;;;;;;24.00;22.50;;;;;23.80;83.49;101838.75;5010593;28;45250;-69
2022/07/21 06:25:55;;;;;;;;;24.25;21.75;;;;;23.95;84.19;101838.56;5016714;28;45743;-70
2022/07/21 06:28:21;;;;;;;;;27.75;26.50;;;;;23.93;83.13;101838.78;5014236;28;46408;-69
2022/07/21 06:30:48;;;;;;;;;28.25;24.75;;;;;24.20;82.05;101833.28;5020979;28;45335;-72
2022/07/21 06:33:13;;;;;;;;;27.75;26.00;;;;;24.23;81.74;101833.75;5014754;28;45432;-69
2022/07/21 06:35:39;;;;;;;;;25.50;24.50;;;;;24.00;83.48;101838.78;5020065;28;45492;-68
2022/07/21 06:38:05;;;;;;;;;22.75;20.75;;;;;23.95;83.96;101846.91;5027065;28;46291;-70
2022/07/21 06:40:31;;;;;;;;;28.50;24.75;;;;;24.09;83.45;101845.00;5018630;28;45439;-69
2022/07/21 06:42:57;;;;;;;;;25.25;23.25;;;;;24.30;81.74;101842.06;5013517;28;45384;-70
2022/07/21 06:45:23;;;;;;;;;27.50;27.50;;;;;24.42;80.67;101843.16;5020124;28;45238;-70
2022/07/21 06:47:48;;;;;;;;;19.25;18.25;;;;;24.74;79.45;101836.75;5012776;28;45492;-71
2022/07/21 06:50:14;;;;;;;;;25.00;23.25;;;;;24.70;78.61;101841.00;5006485;28;45486;-70
2022/07/21 06:52:39;;;;;;;;;24.75;22.50;;;;;24.91;78.23;101826.06;5018086;28;45411;-69
2022/07/21 06:55:06;;;;;;;;;25.00;24.75;;;;;25.15;77.90;101832.81;5012209;28;45390;-69
2022/07/21 06:57:34;;;;;;;;;28.75;23.00;;;;;24.89;77.61;101841.22;5006112;28;46136;-70
2022/07/21 07:00:00;;;;;;;;;25.00;24.00;;;;;24.91;78.46;101847.44;5021055;28;45683;-69
2022/07/21 07:02:25;;;;;;;;;23.75;23.25;;;;;24.82;78.05;101839.28;5014331;28;45412;-68
2022/07/21 07:04:51;;;;;;;;;25.00;23.25;;;;;25.07;76.63;101838.63;5020447;28;45430;-70
2022/07/21 07:07:16;;;;;;;;;33.67;27.00;;;;;25.05;76.98;101832.44;5016040;28;46602;-69
2022/07/21 07:09:41;;;;;;;;;26.75;22.75;;;;;25.26;75.57;101854.41;5018636;28;45315;-70
2022/07/21 07:12:08;;;;;;;;;26.00;24.00;;;;;24.61;77.46;101863.69;5018058;28;45412;-69
2022/07/21 07:14:34;;;;;;;;;24.00;23.25;;;;;24.78;77.13;101842.69;5019443;28;45468;-69
2022/07/21 07:17:00;;;;;;;;;27.00;24.50;;;;;24.91;77.52;101850.22;5016598;28;46423;-69
2022/07/21 07:19:27;;;;;;;;;21.67;21.67;;;;;25.00;76.83;101860.88;5018774;28;46016;-69
2022/07/21 07:21:52;;;;;;;;;27.00;22.50;;;;;24.95;77.66;101859.81;5014161;28;45568;-70
2022/07/21 07:24:18;;;;;;;;;24.75;22.75;;;;;24.98;77.03;101859.41;5015840;28;45347;-70
2022/07/21 07:26:44;;;;;;;;;27.25;25.25;;;;;24.92;76.67;101860.25;5026252;28;48248;-69
2022/07/21 07:29:09;;;;;;;;;20.50;19.00;;;;;25.02;76.87;101858.75;5021551;28;45381;-69
2022/07/21 07:31:35;;;;;;;;;30.25;25.50;;;;;25.17;75.90;101866.84;5022854;28;45362;-68
2022/07/21 07:34:00;;;;;;;;;28.50;22.50;;;;;25.52;74.96;101853.47;5019139;28;45699;-69
2022/07/21 07:36:27;;;;;;;;;23.25;20.25;;;;;25.61;74.25;101870.81;5022579;28;46593;-70
2022/07/21 07:38:52;;;;;;;;;28.25;26.00;;;;;25.36;73.60;101857.59;5013726;28;46448;-69
2022/07/21 07:41:22;;;;;;;;;23.25;21.75;;;;;25.64;73.77;101870.38;5023752;28;45411;-68
2022/07/21 07:43:47;;;;;;;;;32.00;27.75;;;;;25.72;72.63;101870.09;5017626;28;45667;-69
2022/07/21 07:46:14;;;;;;;;;23.75;21.25;;;;;25.63;72.77;101868.66;5023614;28;46433;-69
2022/07/21 07:48:41;;;;;;;;;27.25;27.00;;;;;25.79;73.57;101869.00;5013407;28;45284;-68
2022/07/21 07:51:08;;;;;;;;;30.25;27.50;;;;;26.04;70.94;101871.88;5009108;28;45281;-68
2022/07/21 07:53:34;;;;;;;;;22.00;17.75;;;;;25.77;71.53;101875.88;5011755;28;45409;-68
2022/07/21 07:55:59;;;;;;;;;26.75;25.25;;;;;25.74;71.05;101870.75;5021243;28;45567;-69
2022/07/21 07:58:25;;;;;;;;;28.00;24.25;;;;;25.91;71.27;101874.72;5018674;28;45316;-69
2022/07/21 08:00:50;;;;;;;;;30.75;30.50;;;;;25.71;71.73;101872.06;5019493;28;45592;-69
2022/07/21 08:03:16;;;;;;;;;26.75;25.75;;;;;25.83;71.18;101869.41;5019266;28;45174;-69
2022/07/21 08:05:41;;;;;;;;;32.75;29.75;;;;;25.83;72.68;101886.13;5018450;28;48059;-70
2022/07/21 08:08:07;;;;;;;;;21.50;21.50;;;;;25.90;70.38;101892.50;5017808;28;45383;-70
2022/07/21 08:10:32;;;;;;;;;32.25;29.50;;;;;25.79;71.45;101879.31;5022801;28;45470;-70
2022/07/21 08:12:58;;;;;;;;;33.50;31.00;;;;;25.96;70.66;101874.91;5017839;28;45485;-70
2022/07/21 08:15:23;;;;;;;;;28.25;24.00;;;;;26.22;70.27;101883.13;5018757;28;46698;-70
2022/07/21 08:17:48;;;;;;;;;29.50;28.75;;;;;26.37;68.77;101877.28;5019717;28;45337;-70
2022/07/21 08:20:14;;;;;;;;;30.50;24.75;;;;;26.38;69.18;101878.94;5024026;28;45413;-70
2022/07/21 08:22:39;;;;;;;;;32.75;29.75;;;;;26.70;67.44;101886.22;5015090;28;45398;-70
2022/07/21 08:25:05;;;;;;;;;32.25;29.75;;;;;26.68;66.25;101879.16;5021342;28;47141;-68
2022/07/21 08:27:30;;;;;;;;;33.75;30.75;;;;;26.77;66.60;101888.09;5008838;28;45528;-69
2022/07/21 08:29:56;;;;;;;;;36.00;32.75;;;;;26.77;65.72;101893.66;5020570;28;45398;-69
2022/07/21 08:32:21;;;;;;;;;30.50;29.75;;;;;27.00;65.05;101889.19;5018531;28;45399;-68
2022/07/21 08:34:47;;;;;;;;;21.75;19.75;;;;;27.05;64.78;101889.34;5020733;28;46225;-70
2022/07/21 08:37:12;;;;;;;;;27.50;24.75;;;;;26.82;65.43;101900.25;5019424;28;45605;-70
2022/07/21 08:39:38;;;;;;;;;31.50;31.00;;;;;26.62;66.24;101902.38;5020303;28;45311;-70
2022/07/21 08:42:07;;;;;;;;;30.50;29.50;;;;;26.92;64.71;101891.41;5021540;28;45487;-70
2022/07/21 08:44:32;;;;;;;;;33.75;30.00;;;;;26.73;65.56;101893.28;5021112;28;47319;-70
2022/07/21 08:46:59;;;;;;;;;32.75;28.75;;;;;26.79;65.10;101894.31;5035953;28;45395;-69
2022/07/21 08:49:24;;;;;;;;;33.50;30.50;;;;;27.19;65.34;101894.78;5021904;28;45402;-69
2022/07/21 08:51:51;;;;;;;;;33.00;32.25;;;;;27.43;62.72;101888.31;5019877;28;45473;-70
2022/07/21 08:54:17;;;;;;;;;33.50;30.00;;;;;27.29;62.26;101886.75;5021090;28;45516;-71
2022/07/21 08:56:43;;;;;;;;;31.00;28.75;;;;;27.56;63.14;101895.69;5008174;28;45298;-70
2022/07/21 08:59:08;;;;;;;;;31.50;30.00;;;;;27.55;61.60;101897.63;5016064;28;45279;-70
2022/07/21 09:01:33;;;;;;;;;29.50;27.25;;;;;27.62;60.73;101904.00;5020986;28;45172;-70
2022/07/21 09:04:18;;;;;;;;;34.25;31.25;;;;;27.51;60.69;101894.44;5020452;28;47546;-70
2022/07/21 09:07:04;;;;;;;;;27.50;24.25;;;;;27.75;59.88;101883.44;5019677;28;45471;-70
2022/07/21 09:09:32;;;;;;;;;31.50;28.00;;;;;28.04;59.39;101892.94;5016440;28;45382;-71
2022/07/21 09:11:58;;;;;;;;;27.50;26.50;;;;;28.49;58.77;101885.81;5020197;28;45377;-71
2022/07/21 09:14:28;;;;;;;;;30.25;26.00;;;;;29.05;57.53;101895.66;5012448;28;47692;-69
2022/07/21 09:16:57;;;;;;;;;32.75;30.25;;;;;29.04;54.73;101888.34;5020743;28;46356;-69
2022/07/21 09:19:22;;;;;;;;;35.50;32.25;;;;;28.83;55.81;101894.56;5018324;28;45375;-72
2022/07/21 09:21:49;;;;;;;;;33.00;29.75;;;;;28.46;57.14;101907.81;5021538;28;45358;-72
2022/07/21 09:24:21;;;;;;;;;25.25;23.50;;;;;28.39;56.68;101893.94;5014883;28;46397;-70
2022/07/21 09:27:10;;;;;;;;;31.50;26.75;;;;;28.55;57.17;101896.06;5019840;28;45469;-70
2022/07/21 09:29:37;;;;;;;;;28.75;24.00;;;;;27.92;58.94;101886.44;5017850;28;45446;-70
2022/07/21 09:32:16;;;;;;;;;26.00;26.00;;;;;27.63;60.18;101888.94;5017184;28;45558;-70
2022/07/21 09:34:42;;;;;;;;;27.75;27.75;;;;;28.31;57.82;101899.88;5015264;28;45605;-70
2022/07/21 09:37:08;;;;;;;;;20.25;20.25;;;;;28.76;56.64;101896.59;5019542;28;45470;-70
2022/07/21 09:39:54;;;;;;;;;28.50;26.00;;;;;28.45;56.28;101897.72;5018086;28;45366;-70
2022/07/21 09:42:22;;;;;;;;;25.50;22.25;;;;;28.22;58.02;101899.34;5018509;28;46120;-70
2022/07/21 09:44:51;;;;;;;;;32.50;27.75;;;;;28.24;57.46;101899.13;5019290;28;45558;-70
2022/07/21 09:47:18;;;;;;;;;21.25;20.00;;;;;28.05;58.52;101898.28;5003718;28;45607;-70
2022/07/21 09:49:44;;;;;;;;;32.75;27.25;;;;;28.26;58.76;101916.50;5016016;28;45425;-70
2022/07/21 09:52:33;;;;;;;;;26.00;24.00;;;;;28.93;56.53;101906.00;5017489;28;45449;-71
2022/07/21 09:55:09;;;;;;;;;27.00;22.25;;;;;29.53;55.02;101897.34;5008665;28;45569;-71
2022/07/21 09:57:35;;;;;;;;;24.25;23.50;;;;;30.29;52.15;101888.59;5015517;28;45414;-70
2022/07/21 10:00:04;;;;;;;;;23.50;21.50;;;;;30.63;51.97;101883.03;5018188;28;45462;-71
2022/07/21 10:02:31;;;;;;;;;23.00;23.00;;;;;30.52;50.36;101887.63;5017177;28;45322;-71
2022/07/21 10:05:08;;;;;;;;;24.25;23.00;;;;;30.54;50.97;101888.22;5020690;28;48236;-70
2022/07/21 10:07:39;;;;;;;;;28.50;26.00;;;;;30.46;49.84;101885.81;5018479;28;45393;-70
2022/07/21 10:10:05;;;;;;;;;25.50;23.25;;;;;29.41;53.46;101878.63;5021928;28;45524;-70
2022/07/21 10:12:31;;;;;;;;;29.50;24.25;;;;;29.30;53.74;101885.03;5019972;28;45449;-70
2022/07/21 10:14:57;;;;;;;;;22.50;21.00;;;;;29.95;52.04;101881.19;5014086;28;46333;-70
2022/07/21 10:17:24;;;;;;;;;22.25;20.50;;;;;29.80;51.69;101870.50;5018488;28;45341;-70
2022/07/21 10:20:01;;;;;;;;;22.00;21.00;;;;;30.12;51.59;101882.06;5019966;28;45470;-70
2022/07/21 10:22:43;;;;;;;;;25.25;24.50;;;;;30.15;49.98;101885.25;5018541;28;45425;-70
2022/07/21 10:25:09;;;;;;;;;22.25;22.25;;;;;31.12;49.11;101882.22;5021222;28;46326;-69
2022/07/21 10:27:35;;;;;;;;;21.50;20.75;;;;;31.83;46.90;101887.97;5014928;28;45383;-70
2022/07/21 10:30:04;;;;;;;;;22.00;21.50;;;;;31.57;46.88;101886.75;5023666;28;45351;-68
2022/07/21 10:32:36;;;;;;;;;19.00;18.75;;;;;31.17;48.09;101899.13;5017419;28;45315;-69
2022/07/21 10:35:26;;;;;;;;;22.25;19.00;;;;;31.30;47.16;101884.72;5016912;28;45465;-70
2022/07/21 10:37:51;;;;;;;;;23.00;19.75;;;;;30.97;48.12;101886.69;5005504;28;45452;-70
2022/07/21 10:40:20;;;;;;;;;25.25;25.00;;;;;31.55;46.36;101895.47;5020530;28;45340;-71
2022/07/21 10:43:06;;;;;;;;;21.50;21.25;;;;;30.93;46.54;101897.56;5014752;28;45665;-70
2022/07/21 10:45:31;;;;;;;;;22.25;22.25;;;;;30.89;47.00;101894.44;5010235;28;46227;-70
2022/07/21 10:47:57;;;;;;;;;22.00;21.50;;;;;30.86;46.80;101894.94;5013368;28;45447;-70
2022/07/21 10:50:31;;;;;;;;;25.00;23.75;;;;;31.34;46.81;101887.88;5019475;28;45463;-70
2022/07/21 10:52:58;;;;;;;;;21.00;20.75;;;;;32.02;46.17;101892.97;5016101;28;45470;-70
2022/07/21 10:55:28;;;;;;;;;23.25;23.00;;;;;31.84;44.53;101895.31;5014453;28;46470;-71
2022/07/21 10:58:25;;;;;;;;;21.25;20.50;;;;;32.17;43.33;101895.16;5015468;28;45363;-70
2022/07/21 11:00:56;;;;;;;;;22.50;22.50;;;;;32.39;43.24;101887.50;5014937;28;45523;-71
2022/07/21 11:03:38;;;;;;;;;21.00;19.25;;;;;32.40;42.90;101889.22;5017773;28;45508;-73
2022/07/21 11:06:08;;;;;;;;;21.75;20.25;;;;;32.24;43.51;101890.16;5013668;28;46457;-70
2022/07/21 11:08:34;;;;;;;;;19.00;17.50;;;;;31.88;43.55;101896.47;5023189;28;45502;-70
2022/07/21 11:11:14;;;;;;;;;20.50;20.50;;;;;32.17;42.51;101895.16;5020001;28;45365;-69
2022/07/21 11:14:18;;;;;;;;;21.00;19.25;;;;;31.99;43.72;101887.06;5015153;28;45296;-68
2022/07/21 11:16:49;;;;;;;;;22.75;22.75;;;;;32.03;42.75;101891.03;4981240;28;45971;-71